Etusivu
METAR-TAF:

METAR-TAF

Lentoasemat :

Julius Nyereren kansainvälinen lentoasema

Dar es Salaam, Tansania

Leveyspiiri: 06-52S, Pituuspiiri: 039-12E, korkeus merenpinnasta: 55 m

Tämänhetkinen sää

Tämä raportti tehtiin 23 tuntia ja 20 minuuttia sitten, kello 22.00 UTC
tyyntä
Lämpötila 25°C
Kosteus 94%
Ilmanpaine 1012 hPa
Näkyvyys 10 km tai enemmän
Muutamia pilviä 1400 ft:n korkeudessa

METAR: HTDA 222200Z 00000KT 9999 FEW014 25/24 Q1012 NOSIG

Aika: 00:20 (21:20 UTC)

Sääennuste

Tämä raportti tehtiin 10 tuntia ja 20 minuuttia sitten, kello 11.00 UTC
Ennuste voimassa 22. päivästä klo 12 UTC - 23. päivään klo 18 UTC
Tuuli 10 kn idästä/kaakosta
Näkyvyys: 5000 m
Hajonneita pilviä 1800 ft:n korkeudessa
sadetta
Tulossa
22. päivästä klo 20 UTC - 22. päivään klo 23 UTC
Tuuli kn pohjoisesta
Näkyvyys 10 km tai enemmän
Hajanaisia pilviä 1000 ft:n korkeudessa

TAF: HTDA 221100Z 2212/2318 12010KT 5000 RA BKN018 BECMG 2220/2223 00000KT 9999 SCT010

Säähavainnot ja -ennusteet yli 4000 lentoasemalta (METAR- ja TAF-raportit).

Käytössä olevat sääasemat on merkitty karttaan keltaisilla ja punaisilla pisteillä.

Aseta hiiri pisteen päälle nähdäksesi sääaseman nimen.

Klikkaa sitten nähdäksesi säähavainnot ja -ennusteet.

Kartan vaihtaminen: klikkaa mustalla rastilla varustettuja vihreitä pisteitä, niin voit zoomata sisään; viivalla varustettua vihreää pistettä, niin voit zoomata ulos tai vihreitä nuolia, niin pääset viereisille kartoille.


METAR-TAF: